Time;durP1;ratioP1;P1;durP2;ratioP2;P2;SDS_P1;SDS_P2;PMS_P1;PMS_P2;Temp;Humidity;BMP_temperature;BMP_pressure;BME280_temperature;BME280_humidity;BME280_pressure;Samples;Min_cycle;Max_cycle;Signal;HPM_P1;HPM_P2
2023/07/06 00:01:42;;;;;;;2.70;1.38;;;;;;;14.58;100.00;98867.41;5072697;28;20032;-76
2023/07/06 00:04:08;;;;;;;3.67;1.70;;;;;;;14.62;100.00;98880.34;5065787;28;20032;-75
2023/07/06 00:06:33;;;;;;;2.20;1.40;;;;;;;14.60;100.00;98882.47;5072498;28;20028;-75
2023/07/06 00:09:00;;;;;;;2.22;1.45;;;;;;;14.68;100.00;98895.78;5066048;28;20118;-75
2023/07/06 00:11:32;;;;;;;3.05;1.60;;;;;;;14.78;100.00;98892.53;5071505;28;20029;-75
2023/07/06 00:13:58;;;;;;;2.67;1.42;;;;;;;14.93;100.00;98908.47;5052901;28;20381;-76
2023/07/06 00:16:23;;;;;;;3.80;1.58;;;;;;;14.93;100.00;98889.38;5071506;28;20108;-75
2023/07/06 00:18:48;;;;;;;5.65;1.83;;;;;;;14.95;100.00;98886.44;5059020;28;20086;-75
2023/07/06 00:21:13;;;;;;;4.28;1.60;;;;;;;14.93;100.00;98899.47;5056858;28;20111;-75
2023/07/06 00:23:43;;;;;;;4.18;1.80;;;;;;;14.90;100.00;98898.03;5079075;22;20542;-75
2023/07/06 00:26:09;;;;;;;5.68;1.60;;;;;;;14.84;100.00;98896.22;5027210;28;20076;-75
2023/07/06 00:28:34;;;;;;;3.25;1.55;;;;;;;14.88;100.00;98897.41;5031520;28;20482;-75
2023/07/06 00:31:08;;;;;;;4.65;1.70;;;;;;;14.89;100.00;98899.09;5014067;28;20071;-75
2023/07/06 00:33:34;;;;;;;3.63;1.80;;;;;;;14.82;100.00;98901.06;5015154;28;20059;-75
2023/07/06 00:35:59;;;;;;;4.30;2.13;;;;;;;14.52;100.00;98871.84;5032700;28;20091;-77
2023/07/06 00:38:25;;;;;;;4.65;2.05;;;;;;;14.54;100.00;98883.38;5031839;28;20105;-77
2023/07/06 00:40:55;;;;;;;3.25;1.60;;;;;;;14.51;100.00;98902.84;5029441;28;20030;-77
2023/07/06 00:43:23;;;;;;;4.07;1.58;;;;;;;14.42;100.00;98899.59;5020054;28;20034;-78
2023/07/06 00:45:55;;;;;;;3.40;1.80;;;;;;;14.32;100.00;98896.56;5032549;28;20561;-77
2023/07/06 00:48:33;;;;;;;3.45;1.73;;;;;;;14.20;100.00;98879.31;5032368;28;20029;-77
2023/07/06 00:51:04;;;;;;;3.17;1.60;;;;;;;14.27;100.00;98879.25;5052181;28;20049;-77
2023/07/06 00:53:33;;;;;;;3.03;1.63;;;;;;;14.21;100.00;98891.88;5055648;28;20045;-76
2023/07/06 00:55:59;;;;;;;4.28;1.55;;;;;;;14.22;100.00;98883.47;5054246;28;20033;-77
2023/07/06 00:58:36;;;;;;;7.70;1.70;;;;;;;14.18;100.00;98884.16;5041409;28;20196;-77
2023/07/06 01:01:05;;;;;;;8.98;1.90;;;;;;;14.22;100.00;98901.69;5016291;28;20121;-78
2023/07/06 01:03:33;;;;;;;3.05;1.38;;;;;;;14.13;100.00;98890.28;5014034;28;20031;-77
2023/07/06 01:06:02;;;;;;;3.33;1.50;;;;;;;14.18;100.00;98904.03;5031142;28;20025;-77
2023/07/06 01:08:29;;;;;;;3.30;1.65;;;;;;;14.17;100.00;98899.66;5006790;28;20077;-77
2023/07/06 01:10:58;;;;;;;9.65;1.98;;;;;;;14.03;100.00;98881.78;5014360;28;20036;-77
2023/07/06 01:13:24;;;;;;;4.18;2.05;;;;;;;13.96;100.00;98872.84;5004528;28;20055;-76
2023/07/06 01:16:04;;;;;;;4.45;1.75;;;;;;;13.97;100.00;98888.13;5027248;28;20057;-77
2023/07/06 01:18:49;;;;;;;4.88;2.13;;;;;;;13.89;100.00;98888.41;5031427;28;20390;-76
2023/07/06 01:21:42;;;;;;;3.60;1.70;;;;;;;13.75;100.00;98887.69;5005780;28;20030;-77
2023/07/06 01:24:17;;;;;;;4.88;1.80;;;;;;;13.71;100.00;98892.75;5028821;28;20037;-78
2023/07/06 01:26:53;;;;;;;3.13;1.55;;;;;;;13.70;100.00;98899.25;5030180;28;20122;-77
2023/07/06 01:29:36;;;;;;;6.32;2.00;;;;;;;13.66;100.00;98902.63;5013983;28;20034;-76
2023/07/06 01:32:07;;;;;;;4.57;1.55;;;;;;;13.64;100.00;98897.38;5014572;28;20030;-77
2023/07/06 01:34:54;;;;;;;6.45;2.25;;;;;;;13.48;100.00;98858.00;5014666;28;20025;-76
2023/07/06 01:37:26;;;;;;;4.32;1.70;;;;;;;13.55;100.00;98864.22;5032155;28;20026;-76
2023/07/06 01:39:53;;;;;;;4.40;1.73;;;;;;;13.52;100.00;98874.72;5028505;28;20032;-76
2023/07/06 01:42:30;;;;;;;7.15;2.10;;;;;;;13.54;100.00;98867.13;5032132;28;20052;-76
2023/07/06 01:45:18;;;;;;;3.17;1.73;;;;;;;13.65;100.00;98880.03;5020723;28;20022;-77
2023/07/06 01:47:47;;;;;;;3.25;1.80;;;;;;;13.53;100.00;98884.50;5028400;28;20036;-77
2023/07/06 01:50:14;;;;;;;5.03;1.50;;;;;;;13.48;100.00;98882.44;5020127;28;20078;-77
2023/07/06 01:52:39;;;;;;;5.32;1.88;;;;;;;13.52;100.00;98889.13;5031698;28;20026;-76
2023/07/06 01:55:27;;;;;;;3.55;1.80;;;;;;;13.42;100.00;98885.22;5030138;28;20120;-76
2023/07/06 01:58:09;;;;;;;2.63;1.80;;;;;;;13.16;100.00;98873.44;5026764;28;20026;-76
2023/07/06 02:00:38;;;;;;;3.72;1.80;;;;;;;13.13;100.00;98874.72;5009557;28;20029;-76
2023/07/06 02:03:07;;;;;;;4.13;1.95;;;;;;;13.31;100.00;98900.34;5030626;28;20510;-77
2023/07/06 02:05:36;;;;;;;3.92;2.13;;;;;;;13.29;100.00;98908.72;5044435;28;20482;-77
2023/07/06 02:08:02;;;;;;;;;;;;;;;13.33;100.00;98903.66;5014201;28;20379;-77
2023/07/06 02:10:30;;;;;;;10.05;2.15;;;;;;;13.22;100.00;98886.16;5030592;28;19913;-77
2023/07/06 02:12:55;;;;;;;3.42;1.95;;;;;;;12.96;100.00;98846.38;5010596;28;20110;-76
2023/07/06 02:15:20;;;;;;;3.92;1.92;;;;;;;13.10;100.00;98868.91;5030955;28;20057;-77
2023/07/06 02:17:47;;;;;;;2.85;1.77;;;;;;;13.32;100.00;98902.00;5015411;28;20033;-77
2023/07/06 02:20:15;;;;;;;5.80;2.17;;;;;;;13.04;100.00;98858.88;5013476;28;20394;-77
2023/07/06 02:22:42;;;;;;;3.17;1.93;;;;;;;13.27;100.00;98894.50;5015129;28;20104;-77
2023/07/06 02:25:08;;;;;;;5.07;2.20;;;;;;;13.17;100.00;98883.25;5031304;28;20033;-77
2023/07/06 02:27:33;;;;;;;9.55;3.45;;;;;;;13.14;100.00;98892.66;5014272;28;20033;-76
2023/07/06 02:30:01;;;;;;;2.70;1.77;;;;;;;13.15;100.00;98909.78;5031168;28;20036;-76
2023/07/06 02:32:27;;;;;;;9.03;1.87;;;;;;;13.03;100.00;98892.53;5013861;28;20099;-76
2023/07/06 02:34:54;;;;;;;3.35;2.20;;;;;;;12.94;100.00;98884.66;5035645;28;20474;-76
2023/07/06 02:37:19;;;;;;;5.68;2.05;;;;;;;13.02;100.00;98888.13;5034241;28;20021;-77
2023/07/06 02:39:44;;;;;;;6.40;2.13;;;;;;;13.15;100.00;98896.22;5033490;28;20079;-76
2023/07/06 02:42:14;;;;;;;3.47;1.85;;;;;;;12.98;100.00;98873.34;5022453;28;20018;-76
2023/07/06 02:44:39;;;;;;;3.88;2.10;;;;;;;13.02;100.00;98880.00;5026113;28;20029;-77
2023/07/06 02:47:05;;;;;;;4.35;1.98;;;;;;;13.30;100.00;98910.38;5035632;28;20078;-77
2023/07/06 02:49:32;;;;;;;4.93;2.17;;;;;;;13.27;100.00;98904.53;5036312;28;20049;-76
2023/07/06 02:52:00;;;;;;;5.82;2.10;;;;;;;13.16;100.00;98908.75;5017028;28;20033;-77
2023/07/06 02:54:25;;;;;;;7.28;2.13;;;;;;;12.98;100.00;98878.78;5034074;28;20463;-76
2023/07/06 02:56:50;;;;;;;4.95;2.13;;;;;;;13.00;100.00;98891.09;5016960;28;20067;-75
2023/07/06 02:59:16;;;;;;;5.45;2.20;;;;;;;12.91;100.00;98895.91;5034427;28;20053;-76
2023/07/06 03:01:41;;;;;;;4.13;2.35;;;;;;;12.71;100.00;98881.63;5035135;28;20029;-76
2023/07/06 03:04:09;;;;;;;6.30;2.42;;;;;;;12.68;100.00;98891.03;5016663;28;20123;-77
2023/07/06 03:06:36;;;;;;;3.88;1.92;;;;;;;12.52;100.00;98885.22;5034919;28;20026;-77
2023/07/06 03:09:01;;;;;;;4.00;1.73;;;;;;;12.33;100.00;98866.06;5015592;28;20128;-76
2023/07/06 03:11:26;;;;;;;5.70;2.42;;;;;;;12.33;100.00;98859.81;5034704;28;20052;-76
2023/07/06 03:13:51;;;;;;;5.93;1.90;;;;;;;12.31;100.00;98872.75;5033515;28;20506;-76
2023/07/06 03:16:17;;;;;;;4.38;2.28;;;;;;;12.39;100.00;98889.66;5032823;28;20033;-75
2023/07/06 03:18:44;;;;;;;5.15;2.28;;;;;;;12.32;100.00;98896.97;5034088;28;20033;-76
2023/07/06 03:21:11;;;;;;;3.42;2.13;;;;;;;12.30;100.00;98895.53;5012767;28;20045;-76
2023/07/06 03:23:36;;;;;;;5.70;1.95;;;;;;;12.15;100.00;98887.63;5017175;28;20501;-76
2023/07/06 03:26:02;;;;;;;3.90;2.40;;;;;;;12.10;100.00;98896.38;5013635;28;20029;-76
2023/07/06 03:28:28;;;;;;;19.98;2.40;;;;;;;11.99;100.00;98889.72;5029046;28;20027;-77
2023/07/06 03:30:57;;;;;;;4.95;2.30;;;;;;;11.98;100.00;98907.03;5034476;28;20471;-76
2023/07/06 03:33:25;;;;;;;4.78;2.80;;;;;;;11.85;100.00;98888.03;5018938;28;20482;-76
2023/07/06 03:35:58;;;;;;;7.85;2.50;;;;;;;11.98;100.00;98909.75;5033531;28;20083;-76
2023/07/06 03:38:25;;;;;;;4.03;2.42;;;;;;;11.93;100.00;98904.13;5015149;28;20076;-77
2023/07/06 03:40:51;;;;;;;5.00;2.40;;;;;;;11.99;100.00;98902.44;5029454;28;20483;-77
2023/07/06 03:43:17;;;;;;;4.75;2.17;;;;;;;12.03;100.00;98914.56;5009408;28;20730;-76
2023/07/06 03:45:46;;;;;;;5.78;1.98;;;;;;;12.06;100.00;98901.41;5016869;28;20061;-77
2023/07/06 03:48:12;;;;;;;4.93;2.72;;;;;;;11.76;100.00;98862.19;5018389;28;20033;-80
2023/07/06 03:50:37;;;;;;;4.50;2.30;;;;;;;11.88;100.00;98901.22;5033127;28;20043;-79
2023/07/06 03:53:03;;;;;;;4.07;2.17;;;;;;;11.80;100.00;98895.97;5028101;28;20034;-78
2023/07/06 03:55:28;;;;;;;4.43;1.80;;;;;;;11.89;100.00;98908.28;5018211;28;20025;-77
2023/07/06 03:58:04;;;;;;;4.15;2.25;;;;;;;11.98;100.00;98912.47;5017443;28;20029;-80
2023/07/06 04:04:42;;;;;;;5.28;1.92;;;;;;;12.02;100.00;98913.69;4998480;28;20046;-80
2023/07/06 04:07:20;;;;;;;10.60;2.25;;;;;;;12.02;100.00;98902.84;5009456;28;20042;-78
2023/07/06 04:13:14;;;;;;;5.63;1.98;;;;;;;11.57;100.00;98839.47;4997734;28;20034;-85
2023/07/06 04:19:22;;;;;;;4.93;2.35;;;;;;;12.18;100.00;98908.88;5027395;22;20062;-56
2023/07/06 04:21:47;;;;;;;4.53;2.20;;;;;;;12.28;100.00;98904.69;5054761;28;20029;-55
2023/07/06 04:24:13;;;;;;;3.28;2.10;;;;;;;12.37;100.00;98910.75;5050087;28;20079;-55
2023/07/06 04:26:42;;;;;;;5.97;2.80;;;;;;;12.44;100.00;98914.28;5050948;28;20016;-56
2023/07/06 04:29:09;;;;;;;;;;;;;;;12.50;100.00;98921.56;5070084;28;20125;-56
2023/07/06 04:31:36;;;;;;;5.80;2.20;;;;;;;12.43;100.00;98901.75;5061476;28;19912;-56
2023/07/06 04:34:03;;;;;;;7.10;3.33;;;;;;;12.62;100.00;98908.16;5039789;28;20045;-63
2023/07/06 04:36:31;;;;;;;8.73;2.40;;;;;;;12.67;100.00;98907.50;5043312;28;20028;-62
2023/07/06 04:39:00;;;;;;;4.43;2.20;;;;;;;12.84;100.00;98914.13;5057792;28;20476;-64
2023/07/06 04:41:27;;;;;;;5.60;2.50;;;;;;;12.89;100.00;98924.34;5050747;28;20116;-63
2023/07/06 04:43:53;;;;;;;3.97;2.20;;;;;;;12.96;100.00;98916.16;5061234;28;20044;-62
2023/07/06 04:46:20;;;;;;;3.33;2.00;;;;;;;13.03;100.00;98914.25;5044019;28;20032;-63
2023/07/06 04:48:46;;;;;;;6.95;2.60;;;;;;;13.02;100.00;98916.16;5058557;28;20058;-63
2023/07/06 04:51:12;;;;;;;4.43;2.40;;;;;;;13.03;100.00;98925.13;5042202;28;20056;-63
2023/07/06 04:53:38;;;;;;;3.15;1.90;;;;;;;13.02;100.00;98923.44;5057451;28;20020;-63
2023/07/06 04:56:04;;;;;;;8.98;2.03;;;;;;;13.14;100.00;98924.44;5073693;28;20467;-63
2023/07/06 04:58:34;;;;;;;6.22;2.05;;;;;;;13.34;100.00;98918.94;5039497;28;20074;-63
2023/07/06 05:01:07;;;;;;;5.78;2.20;;;;;;;13.49;100.00;98922.19;5060660;28;20035;-63
2023/07/06 05:03:35;;;;;;;5.95;2.42;;;;;;;13.68;100.00;98925.81;5067167;28;20031;-56
2023/07/06 05:06:07;;;;;;;2.97;1.92;;;;;;;13.85;100.00;98928.81;5046702;28;20372;-56
2023/07/06 05:08:33;;;;;;;5.95;2.03;;;;;;;14.04;100.00;98926.97;5043805;28;20036;-56
2023/07/06 05:10:59;;;;;;;3.53;2.00;;;;;;;14.18;100.00;98928.53;5060082;28;20345;-56
2023/07/06 05:13:24;;;;;;;5.57;2.30;;;;;;;14.37;100.00;98928.56;5049531;28;20032;-63
2023/07/06 05:15:52;;;;;;;3.80;1.90;;;;;;;14.47;100.00;98924.25;5049759;28;20024;-57
2023/07/06 05:18:19;;;;;;;4.55;2.17;;;;;;;14.72;100.00;98939.72;5050296;28;20103;-57
2023/07/06 05:20:49;;;;;;;3.95;1.90;;;;;;;14.88;100.00;98935.53;5044905;28;20021;-59
2023/07/06 05:23:16;;;;;;;4.65;2.03;;;;;;;15.05;100.00;98938.50;5071554;28;20030;-63
2023/07/06 05:25:41;;;;;;;6.32;2.30;;;;;;;15.12;100.00;98929.19;5056213;28;20071;-63
2023/07/06 05:28:10;;;;;;;9.32;2.17;;;;;;;15.27;100.00;98931.50;5043157;28;20104;-63
2023/07/06 05:30:39;;;;;;;5.10;2.38;;;;;;;15.16;100.00;98918.63;5043970;28;20024;-63
2023/07/06 05:33:04;;;;;;;5.28;2.35;;;;;;;15.32;100.00;98938.97;5082227;28;20024;-64
2023/07/06 05:35:30;;;;;;;7.10;2.55;;;;;;;15.37;100.00;98932.84;5067566;28;20429;-57
2023/07/06 05:37:55;;;;;;;8.57;2.65;;;;;;;15.42;100.00;98933.78;5065307;28;20521;-57
2023/07/06 05:40:21;;;;;;;5.75;2.85;;;;;;;15.61;100.00;98933.75;5052835;28;20035;-57
2023/07/06 05:42:47;;;;;;;6.38;2.63;;;;;;;15.66;100.00;98940.16;5052921;28;20028;-57
2023/07/06 05:45:13;;;;;;;5.45;2.40;;;;;;;15.75;100.00;98940.69;5046093;28;20032;-57
2023/07/06 05:47:38;;;;;;;5.32;2.60;;;;;;;15.91;100.00;98933.72;5040922;28;20029;-57
2023/07/06 05:50:04;;;;;;;4.03;2.33;;;;;;;16.21;100.00;98939.09;5067266;28;20085;-57
2023/07/06 05:52:29;;;;;;;4.82;2.42;;;;;;;16.41;100.00;98942.31;5062173;28;20032;-57
2023/07/06 05:54:55;;;;;;;9.13;2.22;;;;;;;16.69;100.00;98942.63;5058145;28;20067;-58
2023/07/06 05:57:20;;;;;;;5.07;2.10;;;;;;;17.08;100.00;98941.03;5057611;28;20020;-57
2023/07/06 05:59:46;;;;;;;4.50;2.28;;;;;;;17.32;100.00;98941.81;5050699;28;20469;-57
2023/07/06 06:02:17;;;;;;;3.85;2.20;;;;;;;17.78;100.00;98939.06;5046159;28;20457;-62
2023/07/06 06:04:42;;;;;;;4.05;2.22;;;;;;;18.00;100.00;98942.78;5049324;28;20127;-62
2023/07/06 06:07:09;;;;;;;6.40;2.10;;;;;;;18.45;100.00;98930.88;5063027;28;20112;-63
2023/07/06 06:09:35;;;;;;;5.28;2.10;;;;;;;19.03;100.00;98956.09;5053612;28;20057;-63
2023/07/06 06:12:04;;;;;;;7.63;2.20;;;;;;;19.00;100.00;98951.13;5050497;28;20055;-63
2023/07/06 06:14:30;;;;;;;4.60;2.10;;;;;;;19.36;100.00;98949.63;5069560;28;20045;-64
2023/07/06 06:16:56;;;;;;;6.60;1.90;;;;;;;19.55;100.00;98957.53;5046972;28;20415;-63
2023/07/06 06:19:21;;;;;;;3.92;1.95;;;;;;;20.07;100.00;98944.06;5056128;28;20020;-63
2023/07/06 06:21:49;;;;;;;9.85;1.80;;;;;;;20.12;100.00;98959.72;5065303;22;20122;-76
2023/07/06 06:24:15;;;;;;;3.00;1.52;;;;;;;20.11;100.00;98950.66;5039738;28;20041;-75
2023/07/06 06:26:42;;;;;;;5.30;1.83;;;;;;;19.84;100.00;98945.22;5042459;28;20033;-75
2023/07/06 06:29:09;;;;;;;2.88;1.50;;;;;;;20.01;100.00;98944.25;5033065;28;20487;-74
2023/07/06 06:31:36;;;;;;;3.53;1.52;;;;;;;20.48;100.00;98955.31;5028519;28;20604;-75
2023/07/06 06:34:02;;;;;;;4.40;1.63;;;;;;;20.38;100.00;98943.44;5022007;28;20066;-75
2023/07/06 06:36:27;;;;;;;6.50;2.00;;;;;;;20.58;100.00;98958.19;5030481;28;20025;-78
2023/07/06 06:38:53;;;;;;;5.78;1.60;;;;;;;21.19;100.00;98957.66;5028800;28;20116;-76
2023/07/06 06:41:21;;;;;;;4.72;1.85;;;;;;;21.01;100.00;98947.97;5026220;28;20033;-76
2023/07/06 06:43:47;;;;;;;3.60;1.60;;;;;;;21.48;100.00;98951.75;5020554;28;20155;-76
2023/07/06 06:46:13;;;;;;;3.75;1.75;;;;;;;21.64;100.00;98945.19;5032287;28;20487;-85
2023/07/06 06:48:40;;;;;;;7.15;1.70;;;;;;;21.38;95.76;98951.72;5036662;28;20033;-84
2023/07/06 06:51:07;;;;;;;4.28;1.85;;;;;;;21.49;95.04;98933.31;5044239;28;20029;-85
2023/07/06 06:53:33;;;;;;;4.28;1.40;;;;;;;22.34;91.27;98941.94;5037624;28;20048;-86
2023/07/06 06:55:58;;;;;;;4.00;1.58;;;;;;;24.12;76.08;98916.59;5021703;28;20460;-84
2023/07/06 06:58:24;;;;;;;4.22;1.13;;;;;;;26.47;63.73;98927.41;5031076;28;20042;-84
2023/07/06 07:00:56;;;;;;;3.30;1.05;;;;;;;28.92;54.35;98926.56;5042170;28;20653;-82
2023/07/06 07:03:22;;;;;;;3.97;1.60;;;;;;;30.54;48.83;98923.78;5036844;28;20026;-83
2023/07/06 07:05:47;;;;;;;3.40;1.58;;;;;;;31.46;44.95;98905.63;5038852;28;20076;-83
2023/07/06 07:08:12;;;;;;;3.63;1.45;;;;;;;31.52;42.68;98913.50;5038576;28;20043;-86
2023/07/06 07:10:38;;;;;;;4.40;1.40;;;;;;;32.86;40.43;98920.78;5038651;28;20026;-82
2023/07/06 07:13:03;;;;;;;2.10;1.25;;;;;;;32.04;40.12;98923.44;5036270;28;20388;-80
2023/07/06 07:15:28;;;;;;;2.50;1.42;;;;;;;30.27;41.50;98925.81;5037267;28;20021;-79
2023/07/06 07:17:55;;;;;;;2.35;1.23;;;;;;;33.28;39.10;98936.59;5037747;28;20056;-81
2023/07/06 07:20:21;;;;;;;2.92;1.30;;;;;;;32.54;40.32;98928.06;5032554;28;20030;-78
2023/07/06 07:22:46;;;;;;;2.63;1.60;;;;;;;34.29;37.39;98912.38;5031870;28;20431;-80
2023/07/06 07:25:12;;;;;;;3.25;1.38;;;;;;;35.03;36.87;98907.09;5035856;28;20094;-79
2023/07/06 07:27:38;;;;;;;2.50;1.17;;;;;;;35.37;35.57;98919.63;5032477;28;20025;-84
2023/07/06 07:30:05;;;;;;;1.58;1.05;;;;;;;36.18;34.84;98916.16;5032076;28;20028;-80
2023/07/06 07:32:31;;;;;;;4.55;1.50;;;;;;;36.91;33.92;98928.41;5030310;28;20123;-82
2023/07/06 07:34:58;;;;;;;3.80;1.50;;;;;;;38.11;32.89;98919.34;5033086;28;20049;-79
2023/07/06 07:37:24;;;;;;;3.85;1.15;;;;;;;39.57;31.28;98909.81;5055315;28;20021;-76
2023/07/06 07:39:49;;;;;;;7.75;1.20;;;;;;;39.69;30.61;98909.44;5029401;28;20441;-80
2023/07/06 07:42:16;;;;;;;4.63;1.20;;;;;;;40.62;29.85;98918.31;5030231;28;20029;-77
2023/07/06 07:44:44;;;;;;;3.03;1.42;;;;;;;38.55;29.90;98915.81;5035094;28;20272;-79
2023/07/06 07:47:10;;;;;;;1.75;1.10;;;;;;;39.36;29.87;98918.97;5036704;28;20544;-81
2023/07/06 07:49:37;;;;;;;4.43;1.27;;;;;;;39.87;29.37;98921.72;5033972;28;20068;-83
2023/07/06 07:52:04;;;;;;;2.63;1.00;;;;;;;40.99;28.93;98917.16;5034653;28;20029;-72
2023/07/06 07:54:29;;;;;;;4.05;1.40;;;;;;;40.76;28.54;98913.91;5025803;28;20029;-79
2023/07/06 07:56:56;;;;;;;3.22;1.30;;;;;;;41.33;27.98;98920.41;5033902;28;20022;-78
2023/07/06 07:59:23;;;;;;;3.17;1.20;;;;;;;38.48;29.92;98915.75;5030590;28;20098;-80
2023/07/06 08:01:50;;;;;;;3.30;1.15;;;;;;;37.94;29.29;98914.28;5032153;28;20021;-79
2023/07/06 08:04:16;;;;;;;3.67;1.10;;;;;;;38.84;29.76;98918.13;5027007;28;20047;-82
2023/07/06 08:06:42;;;;;;;5.00;1.48;;;;;;;40.77;28.37;98924.03;5037085;28;20035;-80
2023/07/06 08:09:08;;;;;;;4.75;1.10;;;;;;;41.46;27.62;98920.78;5032384;28;20058;-74
2023/07/06 08:11:36;;;;;;;5.78;1.50;;;;;;;39.54;28.43;98921.91;5024910;28;20049;-79
2023/07/06 08:14:03;;;;;;;1.38;0.80;;;;;;;41.28;27.25;98931.38;5035702;28;20037;-77
2023/07/06 08:16:32;;;;;;;3.53;1.00;;;;;;;42.08;25.98;98916.59;5032845;28;20075;-76
2023/07/06 08:18:58;;;;;;;4.05;1.08;;;;;;;42.10;26.62;98899.09;5028747;28;20021;-75
2023/07/06 08:21:23;;;;;;;3.17;1.10;;;;;;;41.67;26.51;98919.16;5027835;28;20494;-73
2023/07/06 08:23:50;;;;;;;2.47;1.20;;;;;;;36.46;29.40;98917.91;5027360;28;20029;-71
2023/07/06 08:26:17;;;;;;;4.18;1.05;;;;;;;38.84;28.63;98927.41;5029170;28;20029;-77
2023/07/06 08:28:44;;;;;;;2.35;1.15;;;;;;;37.06;29.42;98921.84;5017777;28;20482;-83
2023/07/06 08:31:12;;;;;;;4.78;0.98;;;;;;;39.00;28.36;98913.03;5030683;28;20434;-75
2023/07/06 08:33:37;;;;;;;2.88;1.10;;;;;;;38.96;27.78;98912.16;5025457;28;20025;-82
2023/07/06 08:36:05;;;;;;;2.65;1.00;;;;;;;38.44;28.42;98914.91;5033266;28;20108;-76
2023/07/06 08:38:36;;;;;;;3.33;1.35;;;;;;;37.32;29.05;98927.91;5030696;28;20060;-80
2023/07/06 08:41:03;;;;;;;2.22;1.30;;;;;;;35.99;30.35;98909.31;5019496;28;20114;-80
2023/07/06 08:43:31;;;;;;;2.95;1.08;;;;;;;37.25;29.74;98911.66;5037830;28;20017;-79
2023/07/06 08:46:02;;;;;;;3.45;1.20;;;;;;;37.50;29.48;98910.06;5033791;28;20057;-81
2023/07/06 08:48:31;;;;;;;4.03;1.35;;;;;;;38.29;28.59;98913.09;5037260;28;20037;-80
2023/07/06 08:51:22;;;;;;;3.92;1.33;;;;;;;37.96;29.17;98917.50;5056781;28;20025;-81
2023/07/06 08:53:57;;;;;;;2.85;1.45;;;;;;;38.12;28.69;98892.75;5020885;28;20021;-77
2023/07/06 08:56:26;;;;;;;3.28;1.27;;;;;;;37.88;29.05;98910.97;5017210;28;20021;-77
2023/07/06 08:58:54;;;;;;;2.38;1.30;;;;;;;36.88;29.67;98909.44;5031512;28;20056;-78
2023/07/06 09:01:22;;;;;;;3.55;1.40;;;;;;;34.06;32.15;98912.97;5026192;28;20025;-78
2023/07/06 09:03:57;;;;;;;2.88;1.30;;;;;;;32.33;33.83;98886.09;5019977;28;20060;-78
2023/07/06 09:06:26;;;;;;;4.35;1.48;;;;;;;33.59;32.94;98899.53;5034426;28;20597;-79
2023/07/06 09:09:03;;;;;;;4.53;1.30;;;;;;;35.45;31.21;98898.91;5028093;28;20402;-79
2023/07/06 09:11:31;;;;;;;3.92;1.40;;;;;;;33.24;34.28;98894.41;5027650;28;20112;-78
2023/07/06 09:13:58;;;;;;;4.63;1.80;;;;;;;32.05;35.13;98911.09;5029913;28;20021;-76
2023/07/06 09:16:25;;;;;;;2.30;1.20;;;;;;;31.02;37.82;98905.84;5041124;28;20104;-75
2023/07/06 09:18:55;;;;;;;5.53;1.20;;;;;;;30.40;38.43;98906.41;5028595;28;20033;-75
2023/07/06 09:21:25;;;;;;;2.50;1.20;;;;;;;34.11;34.18;98898.66;5028712;28;20084;-75
2023/07/06 09:23:51;;;;;;;1.98;1.08;;;;;;;37.67;31.14;98903.03;5028332;28;20032;-75
2023/07/06 09:26:29;;;;;;;4.15;1.20;;;;;;;36.16;32.03;98898.84;5039509;28;20068;-75
2023/07/06 09:29:12;;;;;;;2.88;1.10;;;;;;;32.76;34.73;98898.81;5020723;28;20446;-75
2023/07/06 09:31:37;;;;;;;2.95;1.10;;;;;;;34.80;32.64;98892.91;5024044;28;20033;-75
2023/07/06 09:34:04;;;;;;;2.55;1.20;;;;;;;33.45;33.86;98896.25;5017910;28;20096;-75
2023/07/06 09:36:30;;;;;;;3.63;1.20;;;;;;;35.49;32.53;98888.53;5019165;28;20026;-74
2023/07/06 09:39:03;;;;;;;2.60;0.90;;;;;;;38.30;31.35;98898.56;5058879;22;20041;-60
2023/07/06 09:41:29;;;;;;;3.83;1.13;;;;;;;39.72;29.69;98886.03;5068174;28;20024;-59
2023/07/06 09:44:00;;;;;;;2.95;1.10;;;;;;;42.49;27.15;98889.56;5061114;28;20085;-60
2023/07/06 09:46:30;;;;;;;2.92;1.10;;;;;;;41.89;26.58;98902.81;5040707;28;20013;-60
2023/07/06 09:48:56;;;;;;;5.60;1.15;;;;;;;40.38;27.75;98899.25;5040385;28;20041;-61
2023/07/06 09:51:32;;;;;;;2.85;1.20;;;;;;;38.03;29.68;98899.88;5045535;28;20025;-60
2023/07/06 09:54:11;;;;;;;4.53;1.75;;;;;;;35.42;31.25;98899.63;5047698;28;20070;-59
2023/07/06 09:56:37;;;;;;;5.05;1.02;;;;;;;37.79;30.31;98906.81;5048700;28;20483;-59
2023/07/06 09:59:03;;;;;;;1.75;1.10;;;;;;;37.93;27.84;98901.34;5049417;28;20031;-59
2023/07/06 10:02:05;;;;;;;2.15;1.17;;;;;;;36.27;29.69;98905.50;5053080;28;20044;-59
2023/07/06 10:04:50;;;;;;;4.63;1.20;;;;;;;39.81;27.83;98899.84;5048930;28;20483;-60
2023/07/06 10:07:52;;;;;;;3.85;1.30;;;;;;;41.63;24.91;98898.44;5055476;28;20036;-60
2023/07/06 10:10:35;;;;;;;2.20;1.20;;;;;;;42.21;25.33;98900.69;5050453;28;20430;-59
2023/07/06 10:13:36;;;;;;;2.05;1.20;;;;;;;40.67;25.40;98894.47;5058400;28;20056;-68
2023/07/06 10:16:15;;;;;;;1.35;1.10;;;;;;;36.27;28.66;98908.31;4988633;28;20121;-66
2023/07/06 10:19:01;;;;;;;2.58;1.30;;;;;;;33.15;32.04;98904.94;5036629;28;20123;-68
2023/07/06 10:21:30;;;;;;;1.83;1.08;;;;;;;37.62;29.25;98897.72;5044410;28;20090;-66
2023/07/06 10:24:06;;;;;;;2.30;1.38;;;;;;;38.24;27.79;98902.13;5062884;28;20038;-66
2023/07/06 10:26:34;;;;;;;2.47;1.33;;;;;;;35.07;29.03;98903.22;5046332;28;20123;-66
2023/07/06 10:29:05;;;;;;;;;;;;;;;33.04;31.42;98910.22;5043804;28;20033;-65
2023/07/06 10:31:52;;;;;;;2.70;1.40;;;;;;;35.41;29.04;98903.63;5052307;28;19974;-65
2023/07/06 10:34:32;;;;;;;2.80;1.20;;;;;;;38.77;26.17;98893.41;5044881;28;20037;-66
2023/07/06 10:37:01;;;;;;;1.70;1.17;;;;;;;39.88;24.61;98900.69;5046214;28;20099;-67
2023/07/06 10:39:29;;;;;;;2.78;1.38;;;;;;;40.02;25.29;98905.59;5052172;28;20087;-67
2023/07/06 10:42:03;;;;;;;2.50;1.10;;;;;;;41.41;25.21;98903.34;5067263;28;20047;-67
2023/07/06 10:44:43;;;;;;;2.60;1.20;;;;;;;40.22;25.93;98906.09;5049143;28;20035;-67
2023/07/06 10:47:29;;;;;;;2.85;1.20;;;;;;;40.82;25.50;98900.94;5054792;28;20048;-67
2023/07/06 10:50:07;;;;;;;2.15;1.05;;;;;;;39.21;27.54;98901.84;5046629;28;20040;-67
2023/07/06 10:52:36;;;;;;;3.22;1.30;;;;;;;36.72;29.26;98898.28;5069652;28;20025;-67
2023/07/06 10:55:10;;;;;;;1.90;1.20;;;;;;;35.03;31.39;98907.94;5057216;28;20035;-67
2023/07/06 10:57:36;;;;;;;2.22;1.10;;;;;;;33.27;32.42;98904.91;5071959;28;20021;-66
2023/07/06 11:00:14;;;;;;;4.03;1.40;;;;;;;32.15;34.04;98907.88;5046821;28;21063;-66
2023/07/06 11:02:40;;;;;;;;;;;;;;;34.86;32.64;98911.91;5049100;28;20075;-66
2023/07/06 11:05:26;;;;;;;3.75;1.40;;;;;;;38.10;28.33;98899.97;5051632;28;20000;-67
2023/07/06 11:07:54;;;;;;;2.28;1.25;;;;;;;36.78;30.01;98893.16;5052172;28;20087;-60
2023/07/06 11:10:36;;;;;;;5.30;1.40;;;;;;;34.26;30.86;98909.09;5045447;28;20037;-60
2023/07/06 11:13:02;;;;;;;3.38;1.20;;;;;;;33.61;33.01;98908.38;5044462;28;20044;-60
2023/07/06 11:15:43;;;;;;;6.60;1.65;;;;;;;34.74;32.32;98905.56;5050890;28;20024;-60
2023/07/06 11:18:22;;;;;;;3.47;1.40;;;;;;;33.50;31.09;98899.63;5050882;28;20024;-60
2023/07/06 11:20:59;;;;;;;3.72;1.23;;;;;;;37.22;28.26;98899.13;5044060;28;20032;-60
2023/07/06 11:23:47;;;;;;;2.95;1.45;;;;;;;38.54;26.84;98900.06;5045167;28;20063;-59
2023/07/06 11:26:38;;;;;;;3.42;1.38;;;;;;;40.49;26.99;98905.75;5038164;28;20033;-59
2023/07/06 11:29:08;;;;;;;2.50;1.38;;;;;;;40.76;25.63;98908.25;5044183;28;20127;-59
2023/07/06 11:31:33;;;;;;;3.38;1.42;;;;;;;41.28;25.36;98895.25;5043700;28;20097;-60
2023/07/06 11:34:14;;;;;;;2.60;1.50;;;;;;;43.00;25.05;98879.44;5049966;28;20083;-60
2023/07/06 11:36:52;;;;;;;1.88;1.27;;;;;;;41.25;25.42;98892.44;5046052;28;20710;-60
2023/07/06 11:39:34;;;;;;;5.13;1.25;;;;;;;35.85;29.07;98897.78;5042724;28;20474;-60
2023/07/06 11:42:24;;;;;;;2.30;1.30;;;;;;;33.81;31.38;98906.59;5048990;28;20423;-67
2023/07/06 11:44:54;;;;;;;2.78;1.50;;;;;;;32.02;32.13;98892.22;5045806;28;20420;-66
2023/07/06 11:47:30;;;;;;;2.88;1.40;;;;;;;34.42;31.22;98897.09;5056677;28;20016;-66
2023/07/06 11:50:02;;;;;;;3.65;1.30;;;;;;;37.48;28.23;98886.19;5055150;28;20028;-66
2023/07/06 11:52:32;;;;;;;3.47;1.30;;;;;;;38.34;27.21;98888.13;5052858;28;20479;-67